createdAt,value
2022-09-23T00:01:39.501Z,6.00
2022-09-23T00:04:11.747Z,5.03
2022-09-23T00:06:41.242Z,5.82
2022-09-23T00:09:09.689Z,7.75
2022-09-23T00:11:38.589Z,11.25
2022-09-23T00:14:06.965Z,5.18
2022-09-23T00:16:36.696Z,8.03
2022-09-23T00:21:35.365Z,4.82
2022-09-23T00:24:04.001Z,4.85
2022-09-23T00:26:32.226Z,6.03
2022-09-23T00:29:00.503Z,5.53
2022-09-23T00:31:29.323Z,8.83
2022-09-23T00:33:59.317Z,8.13
2022-09-23T00:36:29.308Z,7.07
2022-09-23T00:39:00.078Z,5.80
2022-09-23T00:41:28.587Z,9.07
2022-09-23T00:43:59.774Z,6.53
2022-09-23T00:46:31.471Z,4.93
2022-09-23T00:49:04.061Z,5.40
2022-09-23T00:51:37.863Z,5.32
2022-09-23T00:54:08.063Z,5.70
2022-09-23T00:56:38.233Z,6.93
2022-09-23T00:59:09.767Z,6.53
2022-09-23T01:01:39.416Z,4.03
2022-09-23T01:06:36.257Z,6.07
2022-09-23T01:09:05.809Z,5.87
2022-09-23T01:11:53.584Z,7.03
2022-09-23T01:14:36.446Z,4.18
2022-09-23T01:17:10.468Z,6.63
2022-09-23T01:20:19.526Z,3.20
2022-09-23T01:22:55.268Z,4.97
2022-09-23T01:25:35.301Z,4.70
2022-09-23T01:28:30.299Z,3.92
2022-09-23T01:31:06.690Z,3.90
2022-09-23T01:33:41.639Z,5.78
2022-09-23T01:36:19.083Z,3.70
2022-09-23T01:38:58.476Z,4.20
2022-09-23T01:41:51.831Z,5.45
2022-09-23T01:44:29.304Z,3.67
2022-09-23T01:47:04.154Z,4.78
2022-09-23T01:49:38.388Z,5.97
2022-09-23T01:52:16.015Z,7.18
2022-09-23T01:54:50.767Z,6.90
2022-09-23T01:57:25.894Z,3.70
2022-09-23T02:00:00.341Z,4.10
2022-09-23T02:02:36.378Z,4.10
2022-09-23T02:05:09.991Z,3.80
2022-09-23T02:07:43.325Z,4.50
2022-09-23T02:10:16.764Z,3.15
2022-09-23T02:12:50.005Z,6.35
2022-09-23T02:15:20.906Z,2.97
2022-09-23T02:17:55.369Z,4.95
2022-09-23T02:20:29.701Z,4.65
2022-09-23T02:23:04.375Z,3.80
2022-09-23T02:25:41.608Z,7.63
2022-09-23T02:28:16.120Z,5.25
2022-09-23T02:31:27.978Z,3.53
2022-09-23T02:34:04.898Z,4.47
2022-09-23T02:36:41.787Z,5.25
2022-09-23T02:39:14.827Z,3.75
2022-09-23T02:41:53.619Z,3.67
2022-09-23T02:44:24.126Z,4.55
2022-09-23T02:46:53.329Z,3.85
2022-09-23T02:49:24.626Z,12.80
2022-09-23T02:51:54.613Z,7.55
2022-09-23T02:54:25.828Z,3.90
2022-09-23T02:56:55.353Z,3.45
2022-09-23T02:59:24.982Z,4.82
2022-09-23T03:02:17.446Z,3.95
2022-09-23T03:04:58.841Z,3.13
2022-09-23T03:07:34.509Z,5.28
2022-09-23T03:10:09.994Z,3.05
2022-09-23T03:12:43.313Z,2.67
2022-09-23T03:15:23.978Z,2.15
2022-09-23T03:17:59.959Z,2.95
2022-09-23T03:20:34.227Z,3.42
2022-09-23T03:23:06.723Z,5.13
2022-09-23T03:25:39.497Z,6.63
2022-09-23T03:28:08.986Z,4.80
2022-09-23T03:30:38.496Z,5.15
2022-09-23T03:33:12.115Z,4.63
2022-09-23T03:36:02.078Z,2.65
2022-09-23T03:38:37.350Z,3.95
2022-09-23T03:41:07.301Z,3.92
2022-09-23T03:43:38.815Z,3.38
2022-09-23T03:46:09.057Z,2.88
2022-09-23T03:48:37.437Z,7.03
2022-09-23T03:51:22.125Z,7.13
2022-09-23T03:53:50.654Z,3.10
2022-09-23T03:56:18.881Z,8.18
2022-09-23T03:58:47.128Z,4.03
2022-09-23T04:01:16.022Z,2.38
2022-09-23T04:03:44.456Z,2.72
2022-09-23T04:06:14.610Z,2.83
2022-09-23T04:08:43.024Z,2.38
2022-09-23T04:11:11.345Z,3.03
2022-09-23T04:13:40.572Z,2.67
2022-09-23T04:16:09.063Z,4.35
2022-09-23T04:18:37.320Z,3.25
2022-09-23T04:21:05.934Z,4.20
2022-09-23T04:23:35.817Z,5.07
2022-09-23T04:26:05.625Z,4.63
2022-09-23T04:28:34.367Z,4.78
2022-09-23T04:31:06.489Z,3.95
2022-09-23T04:33:35.207Z,8.52
2022-09-23T04:36:03.716Z,3.20
2022-09-23T04:38:32.012Z,5.70
2022-09-23T04:41:01.706Z,4.10
2022-09-23T04:43:30.210Z,5.65
2022-09-23T04:46:01.987Z,5.63
2022-09-23T04:48:31.087Z,7.28
2022-09-23T04:51:04.067Z,4.40
2022-09-23T04:53:33.340Z,5.00
2022-09-23T04:56:07.626Z,10.52
2022-09-23T04:58:41.345Z,4.80
2022-09-23T05:01:11.465Z,7.22
2022-09-23T05:03:40.971Z,5.45
2022-09-23T05:06:25.009Z,9.27
2022-09-23T05:09:15.571Z,3.45
2022-09-23T05:11:45.671Z,8.80
2022-09-23T05:14:14.201Z,8.18
2022-09-23T05:16:42.810Z,6.50
2022-09-23T05:19:13.590Z,5.07
2022-09-23T05:21:41.997Z,6.88
2022-09-23T05:24:10.918Z,11.65
2022-09-23T05:26:42.786Z,5.07
2022-09-23T05:29:12.491Z,9.68
2022-09-23T05:31:41.261Z,6.32
2022-09-23T05:34:09.772Z,5.43
2022-09-23T05:36:39.174Z,7.90
2022-09-23T05:39:08.790Z,3.90
2022-09-23T05:41:37.939Z,5.85
2022-09-23T05:44:06.389Z,5.85
2022-09-23T05:46:36.963Z,5.93
2022-09-23T05:49:06.269Z,4.55
2022-09-23T05:51:36.365Z,4.03
2022-09-23T05:54:07.492Z,3.95
2022-09-23T05:56:37.258Z,12.35
2022-09-23T05:59:07.449Z,3.63
2022-09-23T06:01:38.670Z,6.40
2022-09-23T06:04:08.811Z,4.13
2022-09-23T06:06:38.687Z,5.30
2022-09-23T06:09:09.990Z,6.15
2022-09-23T06:11:38.727Z,4.63
2022-09-23T06:14:07.507Z,4.28
2022-09-23T06:16:37.508Z,3.63
2022-09-23T06:19:07.075Z,2.78
2022-09-23T06:21:37.837Z,4.00
2022-09-23T06:24:08.518Z,3.28
2022-09-23T06:26:37.966Z,1.70
2022-09-23T06:29:11.612Z,5.45
2022-09-23T06:31:43.546Z,3.28
2022-09-23T06:34:14.147Z,1.48
2022-09-23T06:36:45.852Z,3.03
2022-09-23T06:39:15.907Z,3.42
2022-09-23T06:41:44.753Z,4.40
2022-09-23T06:44:13.661Z,3.42
2022-09-23T06:46:43.841Z,1.57
2022-09-23T06:49:13.084Z,6.13
2022-09-23T06:51:41.549Z,1.17
2022-09-23T06:54:11.240Z,3.00
2022-09-23T06:56:40.177Z,3.90
2022-09-23T06:59:11.295Z,1.90
2022-09-23T07:01:40.087Z,5.05
2022-09-23T07:04:11.011Z,1.23
2022-09-23T07:06:40.050Z,2.17
2022-09-23T07:09:09.286Z,2.00
2022-09-23T07:11:38.083Z,1.08
2022-09-23T07:14:06.915Z,5.60
2022-09-23T07:16:35.216Z,2.10
2022-09-23T07:19:03.801Z,2.17
2022-09-23T07:21:33.457Z,1.13
2022-09-23T07:24:01.890Z,4.22
2022-09-23T07:26:34.138Z,2.63
2022-09-23T07:29:05.191Z,0.73
2022-09-23T07:31:39.603Z,0.70
2022-09-23T07:34:10.029Z,2.15
2022-09-23T07:36:41.777Z,1.35
2022-09-23T07:39:12.196Z,1.10
2022-09-23T07:41:41.799Z,0.73
2022-09-23T07:46:40.367Z,1.13
2022-09-23T07:49:10.784Z,0.70
2022-09-23T07:51:43.023Z,0.93
2022-09-23T07:54:14.331Z,1.48
2022-09-23T07:56:43.822Z,0.82
2022-09-23T08:01:45.083Z,0.80
2022-09-23T08:04:17.855Z,1.10
2022-09-23T08:06:49.711Z,2.92
2022-09-23T08:09:20.176Z,0.57
2022-09-23T08:11:49.457Z,0.68
2022-09-23T08:14:19.089Z,1.40
2022-09-23T08:16:47.939Z,2.40
2022-09-23T08:19:17.111Z,2.85
2022-09-23T08:21:47.913Z,0.73
2022-09-23T08:24:18.295Z,0.40
2022-09-23T08:26:48.384Z,1.95
2022-09-23T08:29:18.787Z,0.52
2022-09-23T08:31:47.475Z,0.30
2022-09-23T08:34:16.375Z,0.82
2022-09-23T08:36:48.588Z,3.20
2022-09-23T08:39:18.767Z,2.92
2022-09-23T08:41:58.406Z,0.82
2022-09-23T08:44:33.855Z,0.68
2022-09-23T08:47:12.115Z,5.15
2022-09-23T08:49:47.491Z,1.65
2022-09-23T08:52:23.926Z,0.95
2022-09-23T08:54:55.477Z,2.15
2022-09-23T08:57:35.110Z,1.52
2022-09-23T09:02:36.736Z,3.88
2022-09-23T09:05:10.155Z,0.82
2022-09-23T09:07:43.207Z,1.67
2022-09-23T09:10:18.764Z,2.15
2022-09-23T09:12:48.900Z,2.13
2022-09-23T09:15:20.811Z,2.45
2022-09-23T09:17:59.459Z,0.85
2022-09-23T09:20:39.849Z,1.45
2022-09-23T09:23:22.864Z,1.02
2022-09-23T09:25:53.570Z,1.27
2022-09-23T09:28:27.877Z,37.95
2022-09-23T09:31:01.046Z,1.25
2022-09-23T09:33:37.432Z,1.45
2022-09-23T09:36:14.302Z,0.98
2022-09-23T09:38:44.067Z,2.03
2022-09-23T09:41:15.990Z,1.90
2022-09-23T09:43:48.491Z,1.73
2022-09-23T09:46:34.162Z,5.47
2022-09-23T09:49:08.737Z,2.50
2022-09-23T09:51:42.619Z,1.27
2022-09-23T09:54:24.752Z,1.48
2022-09-23T09:56:54.334Z,0.75
2022-09-23T09:59:28.773Z,1.73
2022-09-23T10:02:26.070Z,0.98
2022-09-23T10:05:01.175Z,0.68
2022-09-23T10:07:31.899Z,0.90
2022-09-23T10:10:31.946Z,2.75
2022-09-23T10:13:15.865Z,1.35
2022-09-23T10:15:45.938Z,0.73
2022-09-23T10:18:20.737Z,2.58
2022-09-23T10:20:49.437Z,1.70
2022-09-23T10:23:26.171Z,2.33
2022-09-23T10:26:01.704Z,1.02
2022-09-23T10:28:58.530Z,1.98
2022-09-23T10:31:29.276Z,2.45
2022-09-23T10:34:00.834Z,1.30
2022-09-23T10:36:31.201Z,0.70
2022-09-23T10:39:16.595Z,2.38
2022-09-23T10:42:14.645Z,0.45
2022-09-23T10:45:15.037Z,1.98
2022-09-23T10:47:52.611Z,1.48
2022-09-23T10:50:33.160Z,0.50
2022-09-23T10:53:10.271Z,1.98
2022-09-23T10:55:49.263Z,5.28
2022-09-23T10:58:59.375Z,3.03
2022-09-23T11:01:40.150Z,2.17
2022-09-23T11:04:24.215Z,0.77
2022-09-23T11:07:08.130Z,1.83
2022-09-23T11:09:50.653Z,3.05
2022-09-23T11:12:37.470Z,2.15
2022-09-23T11:15:22.746Z,1.35
2022-09-23T11:18:11.991Z,1.40
2022-09-23T11:20:49.247Z,1.50
2022-09-23T11:23:46.962Z,2.20
2022-09-23T11:26:32.868Z,1.75
2022-09-23T11:29:19.565Z,0.85
2022-09-23T11:32:01.628Z,0.55
2022-09-23T11:34:45.258Z,1.30
2022-09-23T11:37:18.714Z,2.08
2022-09-23T11:39:54.335Z,2.63
2022-09-23T11:42:26.606Z,0.70
2022-09-23T11:45:00.714Z,1.70
2022-09-23T11:47:39.733Z,2.50
2022-09-23T11:50:20.036Z,1.27
2022-09-23T11:52:53.032Z,0.63
2022-09-23T11:55:25.777Z,18.27
2022-09-23T11:57:56.028Z,1.45
2022-09-23T12:00:27.104Z,5.38
2022-09-23T12:03:10.646Z,1.48
2022-09-23T12:05:43.160Z,0.80
2022-09-23T12:08:19.258Z,0.98
2022-09-23T12:10:56.030Z,2.05
2022-09-23T12:13:30.908Z,0.60
2022-09-23T12:16:26.798Z,2.20
2022-09-23T12:19:06.851Z,0.70
2022-09-23T12:21:58.153Z,1.17
2022-09-23T12:24:58.325Z,1.23
2022-09-23T12:27:36.690Z,2.25
2022-09-23T12:30:14.000Z,1.55
2022-09-23T12:32:43.591Z,0.30
2022-09-23T12:35:25.208Z,1.10
2022-09-23T12:37:54.907Z,0.35
2022-09-23T12:40:32.951Z,0.63
2022-09-23T12:43:02.440Z,1.45
2022-09-23T12:45:40.158Z,0.60
2022-09-23T12:48:42.282Z,1.13
2022-09-23T12:51:18.983Z,2.95
2022-09-23T12:54:16.044Z,1.92
2022-09-23T12:57:07.373Z,0.32
2022-09-23T12:59:57.357Z,1.02
2022-09-23T13:02:36.067Z,0.68
2022-09-23T13:05:32.093Z,2.45
2022-09-23T13:08:06.801Z,2.78
2022-09-23T13:10:42.576Z,0.45
2022-09-23T13:13:21.897Z,1.85
2022-09-23T13:15:50.619Z,0.95
2022-09-23T13:18:58.333Z,1.27
2022-09-23T13:22:08.024Z,1.48
2022-09-23T13:24:42.294Z,0.75
2022-09-23T13:27:23.931Z,1.75
2022-09-23T13:29:57.880Z,2.75
2022-09-23T13:32:31.831Z,1.00
2022-09-23T13:35:06.121Z,0.70
2022-09-23T13:37:45.028Z,0.95
2022-09-23T13:40:24.097Z,1.02
2022-09-23T13:45:26.067Z,3.33
2022-09-23T13:47:57.233Z,3.80
2022-09-23T13:50:25.994Z,0.77
2022-09-23T13:52:56.926Z,0.45
2022-09-23T13:55:32.320Z,1.55
2022-09-23T13:58:03.350Z,0.73
2022-09-23T14:00:39.546Z,0.20
2022-09-23T14:03:25.885Z,3.22
2022-09-23T14:05:56.416Z,0.90
2022-09-23T14:08:25.725Z,2.22
2022-09-23T14:10:57.051Z,5.35
2022-09-23T14:13:28.098Z,5.15
2022-09-23T14:15:59.879Z,3.13
2022-09-23T14:18:33.498Z,0.80
2022-09-23T14:21:01.818Z,0.40
2022-09-23T14:23:30.268Z,10.52
2022-09-23T14:26:00.967Z,1.88
2022-09-23T14:28:29.422Z,0.25
2022-09-23T14:30:59.505Z,0.95
2022-09-23T14:33:32.330Z,2.60
2022-09-23T14:36:06.757Z,2.47
2022-09-23T14:38:52.423Z,8.05
2022-09-23T14:41:24.934Z,6.72
2022-09-23T14:43:59.195Z,4.25
2022-09-23T14:46:29.540Z,2.08
2022-09-23T14:49:02.690Z,2.15
2022-09-23T14:51:34.074Z,7.03
2022-09-23T14:54:33.561Z,4.28
2022-09-23T14:57:20.697Z,1.52
2022-09-23T14:59:53.055Z,2.83
2022-09-23T15:02:33.415Z,3.42
2022-09-23T15:05:17.864Z,3.50
2022-09-23T15:07:50.258Z,5.68
2022-09-23T15:10:27.804Z,3.00
2022-09-23T15:13:05.790Z,20.92
2022-09-23T15:15:35.710Z,13.15
2022-09-23T15:18:07.563Z,10.80
2022-09-23T15:20:36.853Z,5.25
2022-09-23T15:23:05.340Z,5.28
2022-09-23T15:25:35.733Z,3.88
2022-09-23T15:28:27.328Z,8.95
2022-09-23T15:30:56.560Z,3.40
2022-09-23T15:33:28.170Z,4.43
2022-09-23T15:35:57.169Z,2.00
2022-09-23T15:38:26.940Z,2.20
2022-09-23T15:40:55.637Z,3.13
2022-09-23T15:43:26.781Z,7.37
2022-09-23T15:45:58.693Z,2.72
2022-09-23T15:48:31.806Z,2.97
2022-09-23T15:51:06.931Z,5.03
2022-09-23T15:53:35.525Z,3.95
2022-09-23T15:56:09.854Z,7.28
2022-09-23T15:58:40.543Z,8.48
2022-09-23T16:01:13.651Z,9.52
2022-09-23T16:03:42.617Z,4.22
2022-09-23T16:06:13.958Z,5.28
2022-09-23T16:08:42.700Z,5.93
2022-09-23T16:11:19.677Z,5.80
2022-09-23T16:13:49.805Z,6.82
2022-09-23T16:16:20.001Z,8.30
2022-09-23T16:18:51.440Z,9.55
2022-09-23T16:21:23.012Z,16.27
2022-09-23T16:23:53.513Z,19.48
2022-09-23T16:26:24.322Z,10.40
2022-09-23T16:28:56.155Z,10.23
2022-09-23T16:31:29.741Z,6.43
2022-09-23T16:34:02.636Z,7.88
2022-09-23T16:36:33.156Z,5.35
2022-09-23T16:39:03.765Z,4.10
2022-09-23T16:41:32.793Z,8.57
2022-09-23T16:44:06.310Z,11.23
2022-09-23T16:46:36.049Z,12.45
2022-09-23T16:49:05.176Z,8.35
2022-09-23T16:51:38.797Z,9.32
2022-09-23T16:54:10.467Z,8.75
2022-09-23T16:56:40.538Z,10.85
2022-09-23T16:59:11.231Z,11.10
2022-09-23T17:01:57.131Z,10.35
2022-09-23T17:04:26.047Z,9.13
2022-09-23T17:06:56.116Z,9.52
2022-09-23T17:09:26.540Z,7.63
2022-09-23T17:12:04.407Z,7.68
2022-09-23T17:14:34.892Z,7.50
2022-09-23T17:17:03.540Z,5.65
2022-09-23T17:19:34.106Z,6.43
2022-09-23T17:22:02.785Z,6.97
2022-09-23T17:24:31.693Z,5.65
2022-09-23T17:27:06.338Z,9.33
2022-09-23T17:29:51.209Z,8.20
2022-09-23T17:32:21.591Z,9.88
2022-09-23T17:35:15.221Z,8.32
2022-09-23T17:37:47.027Z,10.65
2022-09-23T17:40:18.213Z,11.35
2022-09-23T17:42:53.383Z,9.00
2022-09-23T17:45:23.629Z,9.95
2022-09-23T17:47:55.315Z,7.90
2022-09-23T17:50:23.973Z,11.18
2022-09-23T17:52:52.705Z,13.23
2022-09-23T17:55:21.207Z,8.33
2022-09-23T17:57:52.809Z,5.05
2022-09-23T18:00:23.462Z,7.00
2022-09-23T18:02:53.585Z,6.78
2022-09-23T18:05:23.827Z,5.40
2022-09-23T18:07:52.265Z,6.65
2022-09-23T18:10:20.628Z,4.72
2022-09-23T18:12:49.245Z,3.67
2022-09-23T18:15:20.212Z,9.82
2022-09-23T18:17:50.292Z,12.00
2022-09-23T18:20:19.343Z,14.05
2022-09-23T18:22:52.515Z,10.15
2022-09-23T18:25:38.120Z,8.80
2022-09-23T18:28:15.848Z,11.73
2022-09-23T18:30:53.967Z,16.98
2022-09-23T18:33:24.231Z,11.05
2022-09-23T18:35:54.875Z,9.73
2022-09-23T18:38:23.442Z,12.45
2022-09-23T18:40:54.427Z,15.82
2022-09-23T18:43:25.828Z,19.42
2022-09-23T18:46:00.948Z,12.27
2022-09-23T18:48:51.371Z,12.15
2022-09-23T18:51:24.453Z,13.35
2022-09-23T18:53:57.654Z,9.98
2022-09-23T18:56:27.963Z,21.58
2022-09-23T18:58:57.510Z,9.45
2022-09-23T19:01:26.217Z,8.68
2022-09-23T19:04:00.641Z,12.60
2022-09-23T19:06:35.755Z,9.90
2022-09-23T19:09:19.264Z,8.88
2022-09-23T19:11:57.017Z,14.40
2022-09-23T19:14:25.490Z,9.73
2022-09-23T19:16:54.400Z,12.35
2022-09-23T19:19:24.848Z,13.52
2022-09-23T19:21:55.227Z,13.90
2022-09-23T19:24:24.449Z,13.05
2022-09-23T19:26:55.207Z,11.43
2022-09-23T19:29:25.496Z,9.00
2022-09-23T19:32:00.450Z,12.10
2022-09-23T19:35:21.577Z,12.40
2022-09-23T19:37:53.234Z,15.27
2022-09-23T19:40:28.930Z,13.50
2022-09-23T19:45:36.164Z,11.52
2022-09-23T19:48:11.389Z,10.00
2022-09-23T19:50:46.420Z,12.93
2022-09-23T19:53:15.880Z,14.15
2022-09-23T19:55:45.265Z,20.98
2022-09-23T19:58:14.515Z,13.23
2022-09-23T20:03:11.792Z,12.57
2022-09-23T20:05:42.044Z,14.80
2022-09-23T20:19:16.558Z,15.85
2022-09-23T20:25:22.173Z,20.98
2022-09-23T20:27:52.843Z,17.85
2022-09-23T20:30:21.934Z,21.25
2022-09-23T20:32:50.244Z,22.88
2022-09-23T20:35:18.739Z,22.83
2022-09-23T20:37:48.431Z,17.08
2022-09-23T20:40:16.964Z,21.77
2022-09-23T20:42:45.496Z,22.45
2022-09-23T20:45:13.736Z,24.83
2022-09-23T20:47:41.891Z,23.40
2022-09-23T20:50:11.138Z,19.05
2022-09-23T20:52:39.587Z,24.08
2022-09-23T20:55:10.103Z,18.45
2022-09-23T20:57:38.787Z,18.55
2022-09-23T21:00:09.104Z,16.35
2022-09-23T21:02:38.257Z,18.55
2022-09-23T21:05:07.701Z,19.38
2022-09-23T21:07:35.924Z,13.57
2022-09-23T21:10:06.913Z,19.85
2022-09-23T21:12:36.673Z,20.65
2022-09-23T21:17:33.596Z,16.38
2022-09-23T21:20:02.036Z,20.20
2022-09-23T21:22:30.301Z,21.17
2022-09-23T21:27:53.150Z,19.60
2022-09-23T21:30:21.717Z,19.38
2022-09-23T21:32:50.094Z,16.02
2022-09-23T21:35:18.935Z,15.77
2022-09-23T21:37:47.324Z,17.55
2022-09-23T21:40:33.469Z,14.75
2022-09-23T21:43:03.436Z,16.02
2022-09-23T21:45:32.468Z,17.98
2022-09-23T21:48:03.252Z,17.10
2022-09-23T21:50:32.448Z,18.02
2022-09-23T21:53:00.908Z,15.63
2022-09-23T21:55:29.076Z,16.50
2022-09-23T21:57:57.333Z,16.17
2022-09-23T22:00:27.325Z,14.23
2022-09-23T22:02:55.849Z,16.17
2022-09-23T22:05:24.136Z,16.90
2022-09-23T22:07:54.349Z,15.17
2022-09-23T22:10:22.833Z,16.35
2022-09-23T22:12:51.007Z,17.37
2022-09-23T22:15:19.811Z,15.02
2022-09-23T22:17:49.321Z,14.70
2022-09-23T22:20:17.993Z,16.88
2022-09-23T22:22:46.636Z,17.52
2022-09-23T22:25:15.329Z,18.75
2022-09-23T22:27:57.624Z,15.63
2022-09-23T22:30:43.046Z,17.88
2022-09-23T22:33:16.142Z,13.93
2022-09-23T22:35:44.582Z,14.48
2022-09-23T22:38:12.688Z,10.70
2022-09-23T22:40:43.911Z,16.73
2022-09-23T22:43:12.646Z,15.13
2022-09-23T22:45:41.072Z,16.77
2022-09-23T22:48:09.399Z,15.13
2022-09-23T22:50:41.517Z,12.60
2022-09-23T22:53:11.113Z,14.30
2022-09-23T22:55:39.537Z,13.02
2022-09-23T22:58:27.956Z,13.05
2022-09-23T23:00:57.161Z,12.27
2022-09-23T23:03:26.558Z,14.80
2022-09-23T23:08:27.194Z,13.48
2022-09-23T23:10:56.069Z,17.40
2022-09-23T23:13:25.439Z,14.20
2022-09-23T23:18:21.759Z,13.50
2022-09-23T23:20:49.933Z,13.52
2022-09-23T23:23:19.719Z,15.38
2022-09-23T23:28:16.334Z,16.50
2022-09-23T23:30:44.839Z,15.32
2022-09-23T23:33:13.198Z,14.00
2022-09-23T23:35:41.408Z,15.18
2022-09-23T23:38:11.342Z,11.17
2022-09-23T23:40:41.067Z,10.65
2022-09-23T23:43:09.207Z,13.27
2022-09-23T23:45:37.570Z,15.73
2022-09-23T23:48:05.866Z,15.43
2022-09-23T23:50:34.241Z,14.32
2022-09-23T23:53:02.622Z,11.38
2022-09-23T23:55:30.773Z,9.52
2022-09-23T23:58:03.213Z,9.70
